Time;durP1;ratioP1;P1;durP2;ratioP2;P2;SDS_P1;SDS_P2;PMS_P1;PMS_P2;Temp;Humidity;BMP_temperature;BMP_pressure;BME280_temperature;BME280_humidity;BME280_pressure;Samples;Min_cycle;Max_cycle;Signal;HPM_P1;HPM_P2
2022/12/28 09:09:33;;;;;;;23.58;5.32;;;;;;;;;;5219795;23;20055;-96
2022/12/28 09:14:33;;;;;;;17.83;2.70;;;;;;;;;;6064293;23;21045;-96
2022/12/28 09:17:00;;;;;;;15.63;2.30;;;;;;;;;;5020057;28;20034;-96
2022/12/28 09:19:43;;;;;;;20.13;2.78;;;;;;;;;;5024833;28;20034;-96
2022/12/28 09:31:03;;;;;;;11.95;2.05;;;;;;;;;;5005647;28;20088;-96
2022/12/28 09:36:45;;;;;;;20.75;2.03;;;;;;;;;;5000472;28;20037;-96
2022/12/28 09:42:39;;;;;;;11.63;1.75;;;;;;;;;;5014951;28;20071;-96
2022/12/28 09:48:12;;;;;;;11.57;2.30;;;;;;;;;;5011488;28;20034;-96
2022/12/28 09:54:28;;;;;;;16.17;2.15;;;;;;;;;;5008994;23;20279;-96
2022/12/28 09:57:29;;;;;;;13.65;1.58;;;;;;;;;;5243233;23;20043;-96
2022/12/28 09:59:55;;;;;;;16.30;1.95;;;;;;;;;;5025721;28;20032;-96
2022/12/28 10:02:32;;;;;;;15.05;1.95;;;;;;;;;;5016092;28;20030;-96
2022/12/28 10:05:10;;;;;;;10.50;1.20;;;;;;;;;;5022116;28;20089;-96
2022/12/28 10:07:47;;;;;;;21.33;3.80;;;;;;;;;;5002157;28;20030;-96
2022/12/28 10:10:26;;;;;;;16.65;1.70;;;;;;;;;;4992845;28;20046;-96
2022/12/28 10:13:12;;;;;;;7.70;1.33;;;;;;;;;;4986037;28;20099;-96
2022/12/28 10:19:11;;;;;;;13.98;1.90;;;;;;;;;;4996281;28;20034;-96
2022/12/28 10:21:39;;;;;;;11.65;1.48;;;;;;;;;;4986423;28;20027;-96
2022/12/28 10:24:06;;;;;;;16.65;2.22;;;;;;;;;;4991040;28;20014;-96
2022/12/28 10:26:54;;;;;;;12.40;1.63;;;;;;;;;;4992799;28;20050;-96
2022/12/28 10:29:39;;;;;;;15.68;1.67;;;;;;;;;;4992521;28;20102;-96
2022/12/28 10:38:33;;;;;;;8.43;2.05;;;;;;;;;;4988981;28;20101;-96
2022/12/28 10:44:37;;;;;;;13.10;1.45;;;;;;;;;;5033439;28;20029;-96
2022/12/28 10:47:32;;;;;;;;;;;;;;;;;;;;;
2022/12/28 10:50:36;;;;;;;;;;;;;;;;;;;;;
2022/12/28 11:06:19;;;;;;;11.70;1.13;;;;;;;;;;5023777;28;20105;-96
2022/12/28 11:08:58;;;;;;;6.72;1.35;;;;;;;;;;5021847;28;20044;-95
2022/12/28 11:11:23;;;;;;;14.50;2.63;;;;;;;;;;5020698;28;20026;-96
2022/12/28 11:13:57;;;;;;;19.02;3.05;;;;;;;;;;5020211;28;20029;-95
2022/12/28 11:16:23;;;;;;;10.23;1.20;;;;;;;;;;5021393;28;20022;-96
2022/12/28 11:19:01;;;;;;;;;;;;;;;;;;;;;
2022/12/28 11:21:32;;;;;;;6.82;0.90;;;;;;;;;;5025839;28;20109;-96
2022/12/28 11:23:57;;;;;;;5.80;0.70;;;;;;;;;;5022869;28;20104;-96
2022/12/28 11:26:28;;;;;;;6.07;1.05;;;;;;;;;;5020707;28;20080;-96
2022/12/28 11:28:58;;;;;;;4.43;0.65;;;;;;;;;;5023802;28;20021;-96
2022/12/28 11:31:33;;;;;;;4.22;0.50;;;;;;;;;;5024862;28;20037;-96
2022/12/28 11:34:04;;;;;;;7.43;1.08;;;;;;;;;;5022604;28;20430;-96
2022/12/28 11:39:57;;;;;;;3.70;0.47;;;;;;;;;;5028245;28;20113;-96
2022/12/28 11:48:45;;;;;;;4.53;0.50;;;;;;;;;;5052344;28;20021;-96
2022/12/28 11:51:24;;;;;;;4.10;0.40;;;;;;;;;;5025078;28;20041;-96
2022/12/28 11:53:49;;;;;;;6.35;0.90;;;;;;;;;;5022141;28;20029;-96
2022/12/28 11:56:15;;;;;;;8.23;0.68;;;;;;;;;;5026737;28;20025;-96
2022/12/28 11:58:53;;;;;;;1.10;0.47;;;;;;;;;;5022471;28;20053;-96
2022/12/28 12:01:35;;;;;;;2.55;0.35;;;;;;;;;;5020629;28;20089;-95
2022/12/28 12:04:01;;;;;;;3.55;0.68;;;;;;;;;;5018591;28;20441;-96
2022/12/28 12:07:01;;;;;;;2.05;0.40;;;;;;;;;;5018441;28;20045;-96
2022/12/28 12:09:31;;;;;;;2.03;0.47;;;;;;;;;;5017708;28;20041;-96
2022/12/28 12:12:02;;;;;;;2.45;0.43;;;;;;;;;;5019553;28;20017;-96
2022/12/28 12:14:41;;;;;;;0.88;0.30;;;;;;;;;;5020669;28;20021;-96
2022/12/28 12:17:25;;;;;;;1.92;0.28;;;;;;;;;;5020046;28;20033;-95
2022/12/28 12:19:54;;;;;;;1.95;0.20;;;;;;;;;;5018051;28;20014;-96
2022/12/28 12:22:24;;;;;;;3.20;0.95;;;;;;;;;;5018109;28;20022;-96
2022/12/28 12:24:53;;;;;;;0.82;0.20;;;;;;;;;;5018184;28;20503;-96
2022/12/28 12:27:24;;;;;;;2.45;0.30;;;;;;;;;;5018329;28;20056;-96
2022/12/28 12:29:51;;;;;;;1.45;0.25;;;;;;;;;;5017259;28;20034;-96
2022/12/28 12:36:26;;;;;;;4.05;0.40;;;;;;;;;;5361728;23;20054;-96
2022/12/28 12:39:16;;;;;;;4.80;0.30;;;;;;;;;;5013170;28;20022;-96
2022/12/28 12:42:13;;;;;;;3.38;0.40;;;;;;;;;;4996793;28;20101;-96
2022/12/28 12:45:35;;;;;;;2.25;0.32;;;;;;;;;;4988691;28;20022;-95
2022/12/28 12:49:08;;;;;;;;;;;;;;;;;;;;;
2022/12/28 12:51:10;;;;;;;2.92;0.80;;;;;;;;;;5004493;28;20046;-96
2022/12/28 12:54:24;;;;;;;5.72;0.40;;;;;;;;;;4987166;28;20560;-96
2022/12/28 13:00:46;;;;;;;2.25;0.38;;;;;;;;;;4955745;29;20032;-96
2022/12/28 14:43:44;;;;;;;;;;;;;;;;;;5781235;23;20180;-96
2022/12/28 14:50:03;;;;;;;;;;;;;;;;;;;;;
2022/12/28 15:03:08;;;;;;;13.27;2.58;;;;;;;;;;4915380;29;20092;-96
2022/12/28 15:06:18;;;;;;;13.38;2.33;;;;;;;;;;4861110;29;20098;-96
2022/12/28 15:09:00;;;;;;;18.63;4.55;;;;;;;;;;4863411;29;20037;-96
2022/12/28 15:14:48;;;;;;;13.65;2.00;;;;;;;;;;4927786;29;20269;-96
2022/12/28 15:17:39;;;;;;;13.57;3.30;;;;;;;;;;4951076;29;20066;-96
2022/12/28 15:20:17;;;;;;;16.52;2.20;;;;;;;;;;4963511;29;20031;-96
2022/12/28 15:22:51;;;;;;;17.08;2.55;;;;;;;;;;4956253;28;20065;-96
2022/12/28 15:25:16;;;;;;;16.60;2.67;;;;;;;;;;4999865;28;20046;-96
2022/12/28 15:27:49;;;;;;;12.35;2.45;;;;;;;;;;5001796;28;20018;-96
2022/12/28 15:30:17;;;;;;;15.60;2.70;;;;;;;;;;4998799;28;20069;-96
2022/12/28 15:32:48;;;;;;;12.93;1.77;;;;;;;;;;4997834;28;20030;-96
2022/12/28 15:35:14;;;;;;;18.90;3.03;;;;;;;;;;4998158;28;20023;-96
2022/12/28 15:37:40;;;;;;;17.77;2.78;;;;;;;;;;4999443;28;20033;-95
2022/12/28 15:40:08;;;;;;;9.90;1.95;;;;;;;;;;5000690;28;20030;-96
2022/12/28 15:42:34;;;;;;;18.52;3.65;;;;;;;;;;5002198;28;20081;-96
2022/12/28 15:44:59;;;;;;;15.00;2.15;;;;;;;;;;5000717;28;20030;-96
2022/12/28 15:47:25;;;;;;;8.05;1.85;;;;;;;;;;5001498;28;20018;-95
2022/12/28 15:49:50;;;;;;;14.90;2.50;;;;;;;;;;5001247;28;20057;-96
2022/12/28 15:52:22;;;;;;;13.98;2.63;;;;;;;;;;5002443;28;20061;-96
2022/12/28 15:54:47;;;;;;;17.00;3.17;;;;;;;;;;5000292;28;20030;-96
2022/12/28 15:57:14;;;;;;;18.75;2.72;;;;;;;;;;5000104;28;20029;-96
2022/12/28 15:59:43;;;;;;;17.25;2.95;;;;;;;;;;5000655;28;20011;-96
2022/12/28 16:02:09;;;;;;;20.55;4.32;;;;;;;;;;5001152;28;20029;-96
2022/12/28 16:04:34;;;;;;;11.45;2.30;;;;;;;;;;4999906;28;20019;-96
2022/12/28 16:06:59;;;;;;;26.85;4.32;;;;;;;;;;4998957;28;20021;-96
2022/12/28 16:09:25;;;;;;;15.68;3.70;;;;;;;;;;4999601;28;20060;-96
2022/12/28 16:11:51;;;;;;;11.93;2.13;;;;;;;;;;5000133;28;20027;-96
2022/12/28 16:14:16;;;;;;;10.48;1.60;;;;;;;;;;5000674;28;20023;-96
2022/12/28 16:16:42;;;;;;;28.85;6.82;;;;;;;;;;4997853;28;20026;-96
2022/12/28 16:19:09;;;;;;;18.13;2.40;;;;;;;;;;4998023;28;20026;-95
2022/12/28 16:21:35;;;;;;;17.10;2.22;;;;;;;;;;4999160;28;20070;-96
2022/12/28 16:24:00;;;;;;;15.68;1.65;;;;;;;;;;4999072;28;20025;-96
2022/12/28 16:26:26;;;;;;;12.48;1.90;;;;;;;;;;4997393;28;20227;-96
2022/12/28 16:28:51;;;;;;;16.85;3.35;;;;;;;;;;4998685;28;20011;-95
2022/12/28 16:31:37;;;;;;;11.38;1.98;;;;;;;;;;4999301;28;20519;-96
2022/12/28 16:34:16;;;;;;;16.10;2.83;;;;;;;;;;4999086;28;20026;-96
2022/12/28 16:36:43;;;;;;;10.93;1.70;;;;;;;;;;4997559;28;20026;-96
2022/12/28 16:39:11;;;;;;;11.10;2.10;;;;;;;;;;4998787;28;20109;-96
2022/12/28 16:41:36;;;;;;;13.00;2.17;;;;;;;;;;4999991;28;20026;-96
2022/12/28 16:44:03;;;;;;;8.93;1.92;;;;;;;;;;5000785;28;20026;-96
2022/12/28 16:46:29;;;;;;;17.85;3.33;;;;;;;;;;5000094;28;20026;-96
2022/12/28 16:48:54;;;;;;;15.40;2.55;;;;;;;;;;4999598;28;20023;-95
2022/12/28 16:51:20;;;;;;;16.90;3.25;;;;;;;;;;4997555;28;20120;-96
2022/12/28 16:53:45;;;;;;;12.93;2.40;;;;;;;;;;4998780;28;20094;-96
2022/12/28 16:56:10;;;;;;;19.85;2.72;;;;;;;;;;4998925;28;20113;-96
2022/12/28 16:58:38;;;;;;;25.98;4.03;;;;;;;;;;4997811;28;20027;-96
2022/12/28 17:01:07;;;;;;;18.00;3.17;;;;;;;;;;4997684;28;20054;-96
2022/12/28 17:03:33;;;;;;;18.08;3.63;;;;;;;;;;4997698;28;20053;-96
2022/12/28 17:05:59;;;;;;;20.10;3.95;;;;;;;;;;4998361;28;20015;-96
2022/12/28 17:08:25;;;;;;;24.20;3.53;;;;;;;;;;4998158;28;20018;-96
2022/12/28 17:10:50;;;;;;;22.02;4.53;;;;;;;;;;4996673;28;20503;-96
2022/12/28 17:13:16;;;;;;;18.50;3.28;;;;;;;;;;4997672;28;20022;-96
2022/12/28 17:15:41;;;;;;;26.83;5.15;;;;;;;;;;4994861;28;20026;-95
2022/12/28 17:18:08;;;;;;;21.85;4.85;;;;;;;;;;4996912;28;20480;-95
2022/12/28 17:20:37;;;;;;;24.38;4.30;;;;;;;;;;4995624;28;20021;-95
2022/12/28 17:23:03;;;;;;;17.95;3.47;;;;;;;;;;4996451;28;20022;-95
2022/12/28 17:25:29;;;;;;;20.77;4.22;;;;;;;;;;4995585;28;20078;-96
2022/12/28 17:27:55;;;;;;;27.63;3.55;;;;;;;;;;4994494;28;20076;-95
2022/12/28 17:30:20;;;;;;;29.90;3.45;;;;;;;;;;4994720;28;20030;-94
2022/12/28 17:32:45;;;;;;;22.50;3.20;;;;;;;;;;4996448;28;20114;-96
2022/12/28 17:35:13;;;;;;;18.05;3.33;;;;;;;;;;4997092;28;20048;-96
2022/12/28 17:37:39;;;;;;;20.13;3.35;;;;;;;;;;4997358;28;20034;-96
2022/12/28 17:40:04;;;;;;;15.02;2.58;;;;;;;;;;4997295;28;20022;-96
2022/12/28 17:42:33;;;;;;;16.13;3.20;;;;;;;;;;5000829;28;20037;-96
2022/12/28 17:44:59;;;;;;;19.30;3.83;;;;;;;;;;5002578;28;20113;-96
2022/12/28 17:47:24;;;;;;;25.08;3.72;;;;;;;;;;5002826;28;20026;-95
2022/12/28 17:49:50;;;;;;;18.90;3.10;;;;;;;;;;5002552;28;20030;-96
2022/12/28 17:52:19;;;;;;;24.15;4.72;;;;;;;;;;5006128;28;20022;-96
2022/12/28 17:54:45;;;;;;;31.52;4.05;;;;;;;;;;5006735;28;20026;-95
2022/12/28 17:57:10;;;;;;;25.65;4.55;;;;;;;;;;5007194;28;20042;-96
2022/12/28 17:59:36;;;;;;;23.92;4.28;;;;;;;;;;5008471;28;20011;-96
2022/12/28 18:02:03;;;;;;;26.73;3.78;;;;;;;;;;5006708;28;20034;-96
2022/12/28 18:04:29;;;;;;;22.20;4.07;;;;;;;;;;5004221;28;20362;-96
2022/12/28 18:06:54;;;;;;;22.60;4.40;;;;;;;;;;4997581;28;20037;-95
2022/12/28 18:09:19;;;;;;;25.80;4.43;;;;;;;;;;4997455;28;20054;-96
2022/12/28 18:11:45;;;;;;;27.33;4.03;;;;;;;;;;4998241;28;20033;-96
2022/12/28 18:14:11;;;;;;;25.08;4.25;;;;;;;;;;4997902;28;20529;-96
2022/12/28 18:16:37;;;;;;;25.77;3.63;;;;;;;;;;4996773;28;20392;-96
2022/12/28 18:19:02;;;;;;;19.85;3.40;;;;;;;;;;4994724;28;20014;-96
2022/12/28 18:21:28;;;;;;;24.98;3.97;;;;;;;;;;4995472;28;20031;-96
2022/12/28 18:23:53;;;;;;;29.52;4.25;;;;;;;;;;4997398;28;20087;-96
2022/12/28 18:26:20;;;;;;;24.30;3.88;;;;;;;;;;4997076;28;20022;-96
2022/12/28 18:28:48;;;;;;;24.20;4.68;;;;;;;;;;5002287;28;20030;-96
2022/12/28 18:31:17;;;;;;;24.92;5.07;;;;;;;;;;5003995;28;20102;-96
2022/12/28 18:33:42;;;;;;;28.48;4.30;;;;;;;;;;5002476;28;20042;-96
2022/12/28 18:36:08;;;;;;;28.08;4.13;;;;;;;;;;5001699;28;20030;-95
2022/12/28 18:38:36;;;;;;;18.55;3.08;;;;;;;;;;4981866;28;20496;-96
2022/12/28 18:41:01;;;;;;;23.27;4.15;;;;;;;;;;5000930;28;20014;-96
2022/12/28 18:43:27;;;;;;;20.35;3.42;;;;;;;;;;4997347;28;20029;-96
2022/12/28 18:45:53;;;;;;;30.20;4.20;;;;;;;;;;4998130;28;20018;-96
2022/12/28 18:48:19;;;;;;;38.65;6.82;;;;;;;;;;4998012;28;20026;-96
2022/12/28 18:50:58;;;;;;;28.83;4.40;;;;;;;;;;4997283;28;20033;-96
2022/12/28 18:53:23;;;;;;;26.80;6.07;;;;;;;;;;4996335;28;20177;-96
2022/12/28 18:55:56;;;;;;;28.08;5.47;;;;;;;;;;4996216;28;20112;-96
2022/12/28 18:58:21;;;;;;;24.10;4.28;;;;;;;;;;4996743;28;20054;-96
2022/12/28 19:00:47;;;;;;;25.23;5.32;;;;;;;;;;4996812;28;20369;-96
2022/12/28 19:03:12;;;;;;;23.27;4.78;;;;;;;;;;4996251;28;20018;-96
2022/12/28 19:05:37;;;;;;;29.30;5.00;;;;;;;;;;4996815;28;20162;-96
2022/12/28 19:08:03;;;;;;;33.28;4.60;;;;;;;;;;4996965;28;20046;-96
2022/12/28 19:10:28;;;;;;;23.33;4.68;;;;;;;;;;4997115;28;20045;-96
2022/12/28 19:12:55;;;;;;;34.85;4.82;;;;;;;;;;5000538;28;20018;-96
2022/12/28 19:15:21;;;;;;;26.23;4.70;;;;;;;;;;5001103;28;20018;-96
2022/12/28 19:17:46;;;;;;;32.28;8.73;;;;;;;;;;5001050;28;20049;-96
2022/12/28 19:20:12;;;;;;;26.88;5.13;;;;;;;;;;4999902;28;20022;-96
2022/12/28 19:22:37;;;;;;;33.53;6.32;;;;;;;;;;4999169;28;20500;-96
2022/12/28 19:25:02;;;;;;;29.02;4.80;;;;;;;;;;4999520;28;20026;-96
2022/12/28 19:27:28;;;;;;;30.60;5.85;;;;;;;;;;4998608;28;20041;-96
2022/12/28 19:29:53;;;;;;;34.90;5.88;;;;;;;;;;5000420;28;20031;-96
2022/12/28 19:32:19;;;;;;;37.50;5.10;;;;;;;;;;4999170;28;20026;-96
2022/12/28 19:34:47;;;;;;;39.40;6.55;;;;;;;;;;4999214;28;20046;-96
2022/12/28 19:37:14;;;;;;;37.20;5.38;;;;;;;;;;4999006;28;20033;-96
2022/12/28 19:39:40;;;;;;;30.98;6.32;;;;;;;;;;5000516;28;20034;-96
2022/12/28 19:42:05;;;;;;;33.92;4.80;;;;;;;;;;5000303;28;20105;-96
2022/12/28 19:44:31;;;;;;;32.13;5.47;;;;;;;;;;5000737;28;20030;-96
2022/12/28 19:46:57;;;;;;;39.25;6.45;;;;;;;;;;4998897;28;20022;-96
2022/12/28 19:49:23;;;;;;;35.55;5.65;;;;;;;;;;4998923;28;20018;-96
2022/12/28 19:51:48;;;;;;;32.60;5.57;;;;;;;;;;4999585;28;20037;-96
2022/12/28 19:54:13;;;;;;;47.45;5.82;;;;;;;;;;4999822;28;20395;-96
2022/12/28 19:56:39;;;;;;;27.73;5.07;;;;;;;;;;4999171;28;20022;-96
2022/12/28 19:59:04;;;;;;;29.13;7.43;;;;;;;;;;4999279;28;20113;-96
2022/12/28 20:01:30;;;;;;;31.63;5.25;;;;;;;;;;4999094;28;20082;-96
2022/12/28 20:03:55;;;;;;;22.23;4.50;;;;;;;;;;4998226;28;20531;-96
2022/12/28 20:06:22;;;;;;;30.02;4.80;;;;;;;;;;4998567;28;20368;-96
2022/12/28 20:08:48;;;;;;;29.58;4.15;;;;;;;;;;4998712;28;20018;-96
2022/12/28 20:11:14;;;;;;;33.40;5.55;;;;;;;;;;4999130;28;20049;-96
2022/12/28 20:13:39;;;;;;;20.27;4.10;;;;;;;;;;4998609;28;20369;-96
2022/12/28 20:16:05;;;;;;;20.90;4.75;;;;;;;;;;4998735;28;20023;-96
2022/12/28 20:18:30;;;;;;;15.82;3.80;;;;;;;;;;4998957;28;20025;-96
2022/12/28 20:21:03;;;;;;;23.02;4.20;;;;;;;;;;4998322;28;20022;-96
2022/12/28 20:23:28;;;;;;;15.90;2.97;;;;;;;;;;4998355;28;20603;-96
2022/12/28 20:25:54;;;;;;;17.38;3.38;;;;;;;;;;4998949;28;20114;-96
2022/12/28 20:28:19;;;;;;;19.23;3.67;;;;;;;;;;4999533;28;20435;-96
2022/12/28 20:30:48;;;;;;;20.05;2.78;;;;;;;;;;4998695;28;20114;-96
2022/12/28 20:33:13;;;;;;;11.68;2.08;;;;;;;;;;4998381;28;20022;-96
2022/12/28 20:35:39;;;;;;;14.43;2.28;;;;;;;;;;4997249;28;20436;-96
2022/12/28 20:38:04;;;;;;;14.45;3.22;;;;;;;;;;4998051;28;20049;-95
2022/12/28 20:40:29;;;;;;;19.08;3.03;;;;;;;;;;4998865;28;20026;-95
2022/12/28 20:45:39;;;;;;;13.45;2.72;;;;;;;;;;4999392;28;20052;-96
2022/12/28 20:48:04;;;;;;;16.52;3.05;;;;;;;;;;4998599;28;20022;-96
2022/12/28 20:50:29;;;;;;;13.18;2.50;;;;;;;;;;4998008;28;20034;-96
2022/12/28 20:52:55;;;;;;;14.77;3.20;;;;;;;;;;4997798;28;20023;-96
2022/12/28 20:55:20;;;;;;;12.95;2.30;;;;;;;;;;4998152;28;20381;-96
2022/12/28 20:57:46;;;;;;;17.42;3.55;;;;;;;;;;4997978;28;20098;-96
2022/12/28 21:00:11;;;;;;;15.82;2.92;;;;;;;;;;5000664;28;20053;-96
2022/12/28 21:02:38;;;;;;;26.02;4.38;;;;;;;;;;4998240;28;20265;-96
2022/12/28 21:05:04;;;;;;;13.98;2.80;;;;;;;;;;4998461;28;20026;-96
2022/12/28 21:07:39;;;;;;;13.48;2.60;;;;;;;;;;4998005;28;20488;-96
2022/12/28 21:10:22;;;;;;;9.20;2.10;;;;;;;;;;4997686;28;20034;-96
2022/12/28 21:13:16;;;;;;;;;;;;;;;;;;;;;
2022/12/28 21:19:30;;;;;;;;;;;;;;;;;;;;;
2022/12/28 21:24:54;;;;;;;12.60;4.22;;;;;;;;;;4939241;29;20038;-96
2022/12/28 21:27:21;;;;;;;9.68;1.58;;;;;;;;;;4994317;28;20058;-96
2022/12/28 21:29:47;;;;;;;7.25;1.33;;;;;;;;;;5004784;28;20038;-96
2022/12/28 21:32:17;;;;;;;11.07;1.98;;;;;;;;;;5001285;28;20030;-96
2022/12/28 21:34:53;;;;;;;14.38;2.25;;;;;;;;;;4997904;28;20468;-96
2022/12/28 21:37:34;;;;;;;7.25;2.30;;;;;;;;;;4995740;28;20037;-95
2022/12/28 21:40:00;;;;;;;14.15;1.67;;;;;;;;;;4995288;28;20037;-95
2022/12/28 21:42:26;;;;;;;17.50;3.95;;;;;;;;;;4995453;28;20476;-96
2022/12/28 21:44:51;;;;;;;15.40;3.47;;;;;;;;;;4995998;28;20112;-95
2022/12/28 21:47:17;;;;;;;12.35;3.08;;;;;;;;;;4995406;28;20092;-96
2022/12/28 21:49:42;;;;;;;20.92;1.92;;;;;;;;;;4994665;28;20122;-96
2022/12/28 21:52:08;;;;;;;14.07;1.85;;;;;;;;;;4995209;28;20081;-96
2022/12/28 21:54:33;;;;;;;11.95;1.83;;;;;;;;;;4995432;28;20015;-95
2022/12/28 21:56:58;;;;;;;10.73;2.00;;;;;;;;;;4994740;28;20457;-95
2022/12/28 21:59:24;;;;;;;12.38;2.00;;;;;;;;;;4995479;28;20019;-95
2022/12/28 22:07:28;;;;;;;12.80;2.00;;;;;;;;;;4994066;28;20031;-94
2022/12/28 22:12:38;;;;;;;19.77;3.22;;;;;;;;;;4996254;28;20497;-96
2022/12/28 22:18:00;;;;;;;12.00;2.10;;;;;;;;;;4996872;28;20373;-94
2022/12/28 22:20:25;;;;;;;16.42;2.85;;;;;;;;;;4994678;28;20022;-95
2022/12/28 22:22:53;;;;;;;24.98;3.53;;;;;;;;;;4994886;28;20029;-95
2022/12/28 22:25:18;;;;;;;18.30;3.83;;;;;;;;;;4997496;28;20018;-94
2022/12/28 22:27:45;;;;;;;19.17;2.78;;;;;;;;;;4997853;28;20110;-95
2022/12/28 22:30:11;;;;;;;19.45;3.72;;;;;;;;;;4994814;28;20089;-96
2022/12/28 22:32:36;;;;;;;27.23;3.30;;;;;;;;;;4994112;28;20061;-96
2022/12/28 22:35:02;;;;;;;28.75;4.88;;;;;;;;;;4994667;28;20441;-95
2022/12/28 22:37:27;;;;;;;31.05;4.32;;;;;;;;;;4995625;28;20014;-95
2022/12/28 22:39:53;;;;;;;25.63;4.72;;;;;;;;;;4994858;28;20117;-96
2022/12/28 22:42:18;;;;;;;31.23;4.85;;;;;;;;;;4994603;28;20022;-96
2022/12/28 22:44:43;;;;;;;21.88;3.00;;;;;;;;;;4994441;28;20034;-95
2022/12/28 22:47:09;;;;;;;19.50;4.45;;;;;;;;;;4998212;28;20523;-96
2022/12/28 22:49:34;;;;;;;29.52;3.28;;;;;;;;;;4998383;28;20030;-96
2022/12/28 22:51:59;;;;;;;21.33;3.42;;;;;;;;;;4999417;28;20021;-96
2022/12/28 22:54:25;;;;;;;24.73;4.05;;;;;;;;;;4999355;28;20037;-96
2022/12/28 22:56:50;;;;;;;21.02;4.03;;;;;;;;;;4999133;28;20077;-95
2022/12/28 22:59:15;;;;;;;17.45;3.03;;;;;;;;;;5000381;28;20113;-96
2022/12/28 23:01:42;;;;;;;23.92;4.03;;;;;;;;;;5000135;28;20069;-95
2022/12/28 23:04:07;;;;;;;24.77;5.35;;;;;;;;;;4999823;28;20022;-95
2022/12/28 23:06:33;;;;;;;29.60;5.95;;;;;;;;;;4999612;28;20109;-94
2022/12/28 23:08:58;;;;;;;20.40;3.17;;;;;;;;;;4999496;28;20468;-95
2022/12/28 23:11:36;;;;;;;18.02;2.90;;;;;;;;;;4999745;28;20037;-95
2022/12/28 23:16:46;;;;;;;14.20;3.20;;;;;;;;;;5001113;28;20024;-95
2022/12/28 23:27:27;;;;;;;19.67;2.80;;;;;;;;;;5000865;28;20084;-96
2022/12/28 23:29:52;;;;;;;23.33;5.35;;;;;;;;;;4999798;28;20023;-96
2022/12/28 23:32:17;;;;;;;26.65;4.57;;;;;;;;;;4999075;28;20113;-95
2022/12/28 23:34:43;;;;;;;16.70;3.38;;;;;;;;;;4999247;28;20492;-95
2022/12/28 23:37:08;;;;;;;20.17;3.70;;;;;;;;;;4998677;28;20160;-95
2022/12/28 23:39:33;;;;;;;21.85;3.83;;;;;;;;;;4998928;28;20034;-96
2022/12/28 23:41:59;;;;;;;27.48;5.18;;;;;;;;;;4998832;28;20477;-95
2022/12/28 23:44:25;;;;;;;24.48;4.93;;;;;;;;;;4999280;28;20117;-94
2022/12/28 23:46:51;;;;;;;32.72;5.45;;;;;;;;;;4999451;28;20019;-96
2022/12/28 23:49:16;;;;;;;22.77;4.35;;;;;;;;;;4998933;28;20408;-95
2022/12/28 23:51:43;;;;;;;18.58;3.75;;;;;;;;;;4999940;28;20018;-96
2022/12/28 23:54:09;;;;;;;27.75;5.25;;;;;;;;;;4999333;28;20045;-96
2022/12/28 23:56:34;;;;;;;21.63;3.63;;;;;;;;;;4999827;28;20053;-96
2022/12/28 23:59:00;;;;;;;29.38;3.80;;;;;;;;;;4999833;28;20435;-96
